ADDS METAR Data INFO
IDs: Format: Raw Decoded Include TAF

Data at: 0942 UTC 25 Jun 2018

KALB 250925Z 01003KT 10SM BKN009 OVC013 18/16 A2991 RMK AO2 CIG 006V012 T01780156
KALB 250901Z 32003KT 10SM BKN011 OVC031 17/16 A2991 RMK AO2 T01720156
KALB 250851Z 35003KT 10SM SCT010 BKN031 OVC060 17/16 A2990 RMK AO2 SLP123 60000 T01720156 51008
KALB 250751Z 01003KT 10SM FEW015 SCT065 BKN130 17/16 A2989 RMK AO2 SLP119 T01720156
KALB 250651Z 34004KT 10SM SCT020 SCT120 OVC140 18/16 A2989 RMK AO2 RAE0558 SLP121 P0000 T01780161
KALB 250551Z 34004KT 10SM -RA SCT035 BKN110 OVC130 18/16 A2988 RMK AO2 DZE0459RAB13 SLP116 P0000 60022 T01830161 10194 20178 50005
KALB 250515Z 34006KT 10SM -RA OVC032 18/16 A2987 RMK AO2 DZE0459RAB13 P0000 T01830161
KALB 250451Z 32006KT 10SM -DZ BKN029 OVC080 18/17 A2988 RMK AO2 RAE03DZB26 SLP116 PCPN VRY LGT P0000 T01830167 402440161
KALB 250403Z 00000KT 10SM BKN027 OVC060 18/17 A2986 RMK AO2 RAE03 P0000 T01830167
KALB 250351Z COR 33004KT 10SM -RA FEW025 BKN042 OVC060 18/16 A2987 RMK AO2 SLP111 PCPN VRY LGT P0013 T01830161
KALB 250330Z 33006KT 3SM -RA BR FEW025 BKN042 OVC060 18/16 A2987 RMK AO2 TWR VIS 4 P0010 T01780161
KALB 250315Z 34003KT 2SM RA BR FEW025 BKN036 OVC047 18/16 A2986 RMK AO2 TWR VIS 4 P0003 T01780161
KALB 250251Z 35003KT 3SM -RA BR FEW025 BKN041 OVC049 18/16 A2986 RMK AO2 TWR VIS 4 SLP111 P0009 60009 T01780161 53014
KALB 250151Z 34005KT 10SM -RA BKN047 OVC060 18/16 A2984 RMK AO2 RAE02B35 SLP105 P0000 T01830156
KALB 250051Z 35004KT 10SM -RA FEW026 BKN049 OVC060 19/16 A2982 RMK AO2 LTG DSNT SE AND S SLP097 CB DSNT SE-SW MOV SE P0000 T01890161
KALB 250026Z 36008KT 5SM -RA FEW008 SCT026 OVC055 19/16 A2982 RMK AO2 LTG DSNT SW P0000 T01890161
KALB 242351Z 02006KT 10SM -RA SCT008 BKN024CB OVC055 19/17 A2982 RMK AO2 WSHFT 2243 RAE36B47 SLP097 CB NW MOV SE P0012 60015 T01940167 10244 20194 53016
KALB 242340Z 01011KT 10SM SCT009 BKN028CB OVC055 19/17 A2982 RMK AO2 WSHFT 2243 LTG DSNT SW RAE36 CB SE-SW AND NW MOV SE P0012 T01940167
KALB 242325Z 02008KT 5SM -RA BR FEW009 SCT036CB OVC055 20/18 A2982 RMK AO2 WSHFT 2243 CB SE-SW MOV SE P0012 T02000178
KALB 242251Z COR 02012KT 10SM -RA FEW017 SCT022 BKN035CB 22/18 A2979 RMK AO2 RAB38 PRESRR SLP087 CB E-SE MOV SE P0000 T02220183
KALB 242151Z 20004KT 10SM FEW011 SCT065 BKN150 BKN210 23/18 A2978 RMK AO2 RAE10 SLP081 CB DSNT N MOV SE P0000 T02330183
KALB 242051Z 19004KT 10SM -RA FEW011 SCT065 BKN085 BKN130 23/19 A2977 RMK AO2 RAB41 SLP081 P0000 60003 T02330189 58011
KALB 241951Z 18006KT 10SM FEW009 BKN065 BKN085 BKN130 24/20 A2979 RMK AO2 RAB18E32 SLP085 P0000 T02390200
KALB 241851Z 17007KT 7SM FEW007 BKN050 BKN070 OVC130 22/19 A2979 RMK AO2 RAE44 SLP088 BINOVC P0003 T02170194
KALB 241844Z 19007KT 5SM BR FEW007 BKN055 BKN070 OVC130 22/20 A2980 RMK AO2 RAE44 BINOVC P0003 T02170200
KALB 241751Z 22005KT 2SM -RA BR BKN045 OVC055 22/19 A2981 RMK AO2 RAB12 SLP092 P0007 60007 T02170189 10239 20178 56003
KALB 241746Z 21005KT 2SM R01/5000VP6000FT RA BKN047 OVC055 22/19 A2981 RMK AO2 RAB12 P0005
KALB 241651Z 23005KT 10SM FEW050 BKN065 BKN080 BKN130 23/18 A2980 RMK AO2 SLP091 T02330178
KALB 241551Z 18007KT 9SM FEW044 BKN055 OVC080 22/17 A2981 RMK AO2 SLP095 VCSH SW BINOVC T02220172
KALB 241451Z 17005KT 9SM FEW014 FEW048 OVC080 22/17 A2981 RMK AO2 SLP095 T02170172 51002
KALB 241351Z VRB04KT 7SM FEW009 BKN040 OVC080 21/17 A2981 RMK AO2 SLP095 BINOVC T02060167
KALB 241315Z 17005KT 6SM HZ SCT006 BKN036 OVC050 19/16 A2981 RMK AO2 BINOVC T01940161
KALB 241251Z 16006KT 6SM HZ BKN005 OVC034 19/16 A2981 RMK AO2 SLP095 T01890161
KALB 241151Z 17007KT 5SM BR OVC005 18/16 A2981 RMK AO2 SLP093 70033 T01780156 10178 20167 53006
KALB 241051Z 17006KT 5SM BR OVC005 17/15 A2980 RMK AO2 SLP089 T01720150
KALB 241006Z VRB06KT 6SM BR OVC005 17/15 A2979 RMK AO2 T01720150
KALB 240951Z 18006KT 5SM BR OVC004 17/15 A2979 RMK AO2 SLP085 T01720150
KALB 240934Z 17005KT 5SM BR OVC004 17/15 A2978 RMK AO2 T01670150
KALB 240905Z 18006KT 6SM BR OVC005 17/15 A2979 RMK AO2 T01670150
KALB 240851Z 17005KT 5SM BR OVC004 17/15 A2979 RMK AO2 SLP086 T01670150 56006
KALB 240822Z 17006KT 5SM BR OVC004 17/14 A2979 RMK AO2 T01670144
KALB 240751Z 18009KT 8SM OVC005 17/14 A2979 RMK AO2 SLP088 T01670144
KALB 240651Z 17006KT 9SM OVC005 17/14 A2980 RMK AO2 SLP089 T01670144
KALB 240551Z 17005KT 10SM OVC006 17/14 A2981 RMK AO2 SLP093 60000 T01670139 10167 20161 56008
KALB 240451Z 18004KT 10SM OVC008 16/13 A2981 RMK AO2 DZE20 SLP095 P0000 T01610133 402060139
KALB 240351Z 16006KT 10SM -DZ OVC009 16/13 A2982 RMK AO2 RAB25E38 SLP096 P0000 T01610133
KALB 240251Z 16005KT 10SM -DZ OVC008 16/13 A2983 RMK AO2 SLP101 PCPN VRY LGT P0000 60000 T01610133 50001
KALB 240151Z 12003KT 10SM -DZ BKN010 OVC020 16/13 A2984 RMK AO2 DZB49 SLP104 PCPN VRY LGT P0000 T01610133
KALB 240051Z 00000KT 10SM BKN013 OVC022 16/13 A2984 RMK AO2 DZB26E44 SLP102 P0000 T01610133
KALB 232351Z 00000KT 10SM BKN014 OVC022 16/13 A2983 RMK AO2 SLP100 60005 T01610128 10167 20150 55008
KALB 232251Z 10003KT 10SM BKN014 OVC022 16/13 A2983 RMK AO2 SLP100 T01610128
KALB 232151Z 00000KT 10SM FEW008 BKN012 OVC022 16/12 A2984 RMK AO2 SLP104 T01610122